Time;durP1;ratioP1;P1;durP2;ratioP2;P2;SDS_P1;SDS_P2;PMS_P1;PMS_P2;Temp;Humidity;BMP_temperature;BMP_pressure;BME280_temperature;BME280_humidity;BME280_pressure;Samples;Min_cycle;Max_cycle;Signal;HPM_P1;HPM_P2
2023/03/17 00:00:43;;;;;;;7.50;3.80;;;;;;;9.16;69.12;99205.56;5074499;28;20546;-88
2023/03/17 00:03:22;;;;;;;7.70;3.90;;;;;;;9.09;69.10;99209.34;5074495;28;20204;-89
2023/03/17 00:05:48;;;;;;;9.77;4.33;;;;;;;8.88;71.04;99210.34;5075352;28;20169;-88
2023/03/17 00:08:34;;;;;;;8.57;3.93;;;;;;;8.94;70.99;99211.81;5075081;28;20186;-89
2023/03/17 00:11:00;;;;;;;8.57;3.60;;;;;;;9.02;69.96;99205.31;5074942;28;20204;-88
2023/03/17 00:13:27;;;;;;;6.63;3.37;;;;;;;8.86;70.40;99203.44;5074586;28;20192;-88
2023/03/17 00:15:59;;;;;;;7.20;3.53;;;;;;;8.64;71.52;99200.97;5073964;28;20536;-88
2023/03/17 00:18:25;;;;;;;6.57;3.23;;;;;;;8.63;71.46;99205.34;5074931;28;20154;-88
2023/03/17 00:20:52;;;;;;;7.50;3.63;;;;;;;8.54;71.65;99204.88;5074003;28;20188;-89
2023/03/17 00:23:20;;;;;;;10.03;4.37;;;;;;;8.63;71.60;99209.69;5074764;28;20192;-89
2023/03/17 00:25:47;;;;;;;7.00;3.70;;;;;;;8.64;71.12;99211.41;5074047;28;20192;-88
2023/03/17 00:28:26;;;;;;;8.60;3.80;;;;;;;8.58;71.57;99207.28;5074672;28;20192;-88
2023/03/17 00:30:55;;;;;;;8.17;4.07;;;;;;;8.57;71.30;99212.56;5075054;28;20212;-89
2023/03/17 00:33:28;;;;;;;9.90;3.70;;;;;;;8.39;72.09;99208.13;5074547;28;20185;-88
2023/03/17 00:35:55;;;;;;;10.77;4.80;;;;;;;8.31;72.08;99210.22;5074442;28;20188;-88
2023/03/17 00:38:23;;;;;;;8.23;4.07;;;;;;;8.38;71.83;99209.06;5074697;28;20185;-89
2023/03/17 00:40:49;;;;;;;9.10;4.07;;;;;;;8.40;72.45;99207.22;5074413;28;20165;-88
2023/03/17 00:43:16;;;;;;;7.07;3.60;;;;;;;8.29;72.42;99205.06;5074651;28;20173;-88
2023/03/17 00:45:42;;;;;;;8.97;3.90;;;;;;;8.31;72.12;99210.22;5074352;28;20624;-88
2023/03/17 00:48:16;;;;;;;8.57;4.47;;;;;;;8.34;71.93;99210.09;5074217;28;20200;-87
2023/03/17 00:50:43;;;;;;;6.77;3.57;;;;;;;8.20;72.23;99215.03;5074431;28;20196;-88
2023/03/17 00:53:12;;;;;;;6.70;3.93;;;;;;;8.27;72.50;99217.34;5074224;28;20173;-88
2023/03/17 00:55:39;;;;;;;8.37;4.53;;;;;;;8.30;71.93;99214.63;5073610;28;20170;-88
2023/03/17 00:58:22;;;;;;;9.60;4.70;;;;;;;8.14;72.48;99218.75;5074355;28;20177;-88
2023/03/17 01:00:47;;;;;;;8.07;4.07;;;;;;;8.12;73.18;99217.97;5074036;28;20197;-88
2023/03/17 01:03:13;;;;;;;14.20;5.23;;;;;;;7.80;73.82;99226.25;5072993;28;20281;-88
2023/03/17 01:05:40;;;;;;;11.23;4.80;;;;;;;7.65;75.00;99230.28;5074284;28;20238;-88
2023/03/17 01:08:06;;;;;;;7.27;3.93;;;;;;;7.56;75.71;99230.66;5074200;28;20180;-88
2023/03/17 01:10:31;;;;;;;9.17;4.43;;;;;;;7.58;75.05;99231.44;5073692;28;20212;-88
2023/03/17 01:12:58;;;;;;;10.57;5.13;;;;;;;7.53;75.65;99233.38;5074054;28;20172;-89
2023/03/17 01:15:27;;;;;;;8.33;4.93;;;;;;;7.54;76.11;99237.72;5074315;28;20216;-89
2023/03/17 01:17:53;;;;;;;8.67;5.00;;;;;;;7.43;76.19;99232.06;5072682;28;20185;-89
2023/03/17 01:20:22;;;;;;;8.33;4.50;;;;;;;7.56;75.89;99238.50;5073567;28;20197;-89
2023/03/17 01:22:49;;;;;;;8.57;4.97;;;;;;;7.43;76.09;99237.25;5072715;28;20618;-89
2023/03/17 01:25:16;;;;;;;10.10;4.67;;;;;;;7.43;76.25;99234.66;5072600;28;20187;-88
2023/03/17 01:27:42;;;;;;;7.70;4.33;;;;;;;7.44;75.92;99244.19;5073798;28;20173;-88
2023/03/17 01:30:21;;;;;;;7.07;4.30;;;;;;;7.51;75.70;99240.44;5073764;28;20280;-89
2023/03/17 01:32:47;;;;;;;10.17;5.07;;;;;;;7.46;76.98;99242.38;5074035;28;20173;-88
2023/03/17 01:35:13;;;;;;;7.23;4.13;;;;;;;7.64;75.52;99241.66;5073397;28;20607;-88
2023/03/17 01:37:39;;;;;;;6.50;3.80;;;;;;;7.43;76.55;99235.50;5073340;28;20184;-88
2023/03/17 01:40:08;;;;;;;7.37;3.87;;;;;;;7.47;75.99;99238.00;5073318;28;20666;-89
2023/03/17 01:42:34;;;;;;;11.43;4.47;;;;;;;7.65;76.13;99245.13;5072356;28;20180;-88
2023/03/17 01:45:27;;;;;;;8.97;5.40;;;;;;;7.57;75.76;99250.63;5073279;28;20176;-89
2023/03/17 01:47:52;;;;;;;13.43;3.80;;;;;;;7.47;76.39;99244.06;5073386;28;20181;-89
2023/03/17 01:50:18;;;;;;;8.77;4.73;;;;;;;7.36;76.17;99243.63;5072560;28;20217;-88
2023/03/17 01:52:44;;;;;;;9.20;4.03;;;;;;;7.50;76.28;99245.69;5073041;28;20222;-89
2023/03/17 01:55:15;;;;;;;10.00;4.67;;;;;;;7.57;75.41;99255.84;5073197;28;20177;-88
2023/03/17 01:57:49;;;;;;;9.37;4.30;;;;;;;7.69;74.81;99254.50;5073137;28;20252;-89
2023/03/17 02:00:25;;;;;;;10.27;4.40;;;;;;;7.77;74.93;99257.66;5073670;28;20249;-89
2023/03/17 02:02:54;;;;;;;8.13;4.03;;;;;;;7.72;74.71;99246.56;5073431;28;20180;-89
2023/03/17 02:05:28;;;;;;;8.17;4.27;;;;;;;7.55;76.02;99256.81;5072018;28;20617;-88
2023/03/17 02:07:54;;;;;;;7.37;3.87;;;;;;;7.65;75.35;99258.97;5073093;28;20187;-89
2023/03/17 02:10:23;;;;;;;10.17;4.70;;;;;;;7.57;75.30;99261.06;5072004;28;20338;-89
2023/03/17 02:12:56;;;;;;;10.37;4.33;;;;;;;7.63;75.13;99262.56;5073213;28;20173;-89
2023/03/17 02:15:22;;;;;;;7.60;3.97;;;;;;;7.46;75.72;99265.84;5073053;28;20169;-89
2023/03/17 02:17:48;;;;;;;9.00;4.07;;;;;;;7.40;76.61;99268.66;5071919;28;20559;-88
2023/03/17 02:20:17;;;;;;;7.43;4.07;;;;;;;7.35;77.02;99270.59;5071892;28;20201;-88
2023/03/17 02:22:49;;;;;;;10.27;4.70;;;;;;;7.47;76.65;99267.53;5072909;28;20180;-88
2023/03/17 02:25:16;;;;;;;10.20;4.47;;;;;;;7.32;77.40;99270.72;5072005;28;20173;-87
2023/03/17 02:27:45;;;;;;;7.37;4.57;;;;;;;7.37;76.87;99268.78;5072880;28;20641;-88
2023/03/17 02:30:14;;;;;;;8.87;4.37;;;;;;;7.27;77.41;99275.25;5072898;28;20251;-88
2023/03/17 02:32:39;;;;;;;9.80;4.17;;;;;;;7.24;77.68;99289.25;5072781;28;20173;-89
2023/03/17 02:35:07;;;;;;;8.10;4.20;;;;;;;7.37;76.72;99281.81;5072824;28;20173;-88
2023/03/17 02:37:32;;;;;;;10.73;4.87;;;;;;;7.44;76.60;99281.53;5073289;28;20200;-89
2023/03/17 02:39:59;;;;;;;11.53;5.10;;;;;;;7.23;77.27;99284.09;5072660;28;20208;-89
2023/03/17 02:42:25;;;;;;;9.03;4.17;;;;;;;7.37;77.08;99281.81;5073004;28;20173;-88
2023/03/17 02:44:51;;;;;;;10.07;4.53;;;;;;;7.52;75.88;99281.22;5071649;28;20552;-88
2023/03/17 02:47:16;;;;;;;9.03;4.47;;;;;;;7.37;77.23;99282.69;5071632;28;20181;-88
2023/03/17 02:49:43;;;;;;;10.00;4.27;;;;;;;7.29;77.33;99287.31;5072562;28;20181;-88
2023/03/17 02:52:08;;;;;;;9.17;4.30;;;;;;;7.39;76.72;99293.03;5072872;28;20197;-88
2023/03/17 02:54:34;;;;;;;7.73;4.17;;;;;;;7.59;76.16;99294.91;5072821;28;20648;-89
2023/03/17 02:57:00;;;;;;;6.30;3.90;;;;;;;7.73;75.06;99292.63;5071710;28;20629;-88
2023/03/17 02:59:26;;;;;;;7.77;3.93;;;;;;;7.67;75.25;99304.16;5072917;28;20176;-88
2023/03/17 03:01:51;;;;;;;9.40;4.27;;;;;;;7.46;75.44;99299.75;5072482;28;20205;-89
2023/03/17 03:04:18;;;;;;;10.67;4.10;;;;;;;7.44;75.51;99304.16;5071531;28;20189;-88
2023/03/17 03:06:45;;;;;;;8.17;3.63;;;;;;;7.41;76.02;99306.88;5072503;28;20184;-89
2023/03/17 03:09:11;;;;;;;8.40;4.17;;;;;;;7.66;74.58;99317.22;5072709;28;20618;-89
2023/03/17 03:11:38;;;;;;;7.70;3.57;;;;;;;7.42;74.67;99303.34;5071346;28;20193;-88
2023/03/17 03:14:04;;;;;;;6.77;3.87;;;;;;;7.39;75.43;99317.34;5072392;28;20252;-88
2023/03/17 03:16:29;;;;;;;11.13;5.27;;;;;;;7.55;74.53;99309.81;5072364;28;20256;-88
2023/03/17 03:18:55;;;;;;;7.70;3.87;;;;;;;7.56;74.52;99311.53;5074938;28;20581;-88
2023/03/17 03:21:21;;;;;;;8.53;4.03;;;;;;;7.63;73.91;99317.34;5076137;28;20643;-88
2023/03/17 03:23:46;;;;;;;10.80;4.57;;;;;;;7.67;73.65;99314.59;5076215;28;20187;-88
2023/03/17 03:26:12;;;;;;;8.87;4.30;;;;;;;7.34;74.01;99314.06;5075202;28;20191;-88
2023/03/17 03:28:37;;;;;;;8.33;3.73;;;;;;;7.37;74.65;99320.94;5076099;28;20177;-89
2023/03/17 03:31:03;;;;;;;9.47;4.40;;;;;;;7.41;74.19;99323.41;5074811;28;20177;-88
2023/03/17 03:33:29;;;;;;;7.73;3.90;;;;;;;7.45;73.93;99324.09;5075797;28;20587;-89
2023/03/17 03:35:54;;;;;;;8.23;3.53;;;;;;;7.43;74.43;99333.75;5074719;28;20647;-89
2023/03/17 03:38:20;;;;;;;8.60;4.03;;;;;;;7.52;74.12;99341.22;5108817;28;20191;-88
2023/03/17 03:40:45;;;;;;;9.10;5.03;;;;;;;7.43;74.60;99338.97;5074810;28;20204;-88
2023/03/17 03:43:12;;;;;;;11.47;4.60;;;;;;;7.58;74.32;99340.16;5075745;28;20188;-89
2023/03/17 03:45:37;;;;;;;8.27;4.03;;;;;;;7.37;74.47;99336.56;5075353;28;20586;-89
2023/03/17 03:48:03;;;;;;;10.17;4.63;;;;;;;7.38;75.02;99346.09;5075474;28;20181;-88
2023/03/17 03:50:29;;;;;;;9.63;4.83;;;;;;;7.29;75.26;99341.22;5074475;28;20177;-89
2023/03/17 03:52:54;;;;;;;6.70;3.63;;;;;;;7.32;75.61;99339.34;5075421;28;20180;-89
2023/03/17 03:55:20;;;;;;;7.07;3.63;;;;;;;7.51;75.16;99347.38;5075855;28;20187;-89
2023/03/17 03:57:45;;;;;;;10.13;4.77;;;;;;;7.64;73.85;99346.00;5075332;28;20256;-88
2023/03/17 04:00:13;;;;;;;6.87;3.23;;;;;;;7.56;74.35;99348.03;5075481;28;20548;-89
2023/03/17 04:02:40;;;;;;;7.57;3.90;;;;;;;7.65;74.01;99352.91;5075160;28;20173;-89
2023/03/17 04:05:06;;;;;;;7.63;3.93;;;;;;;7.64;74.16;99356.44;5075174;28;20650;-88
2023/03/17 04:07:31;;;;;;;8.27;4.30;;;;;;;7.87;73.99;99358.16;5075092;28;20188;-89
2023/03/17 04:09:58;;;;;;;10.17;5.13;;;;;;;7.80;73.65;99352.34;5074679;28;20188;-88
2023/03/17 04:12:24;;;;;;;8.00;4.20;;;;;;;7.77;73.41;99365.50;5074054;28;20528;-88
2023/03/17 04:14:50;;;;;;;10.17;5.03;;;;;;;7.59;73.25;99360.13;5075260;28;20177;-89
2023/03/17 04:17:15;;;;;;;9.30;4.70;;;;;;;7.69;73.77;99375.38;5074920;28;20242;-89
2023/03/17 04:19:41;;;;;;;7.60;4.37;;;;;;;7.67;73.99;99373.72;5074942;28;20536;-89
2023/03/17 04:22:07;;;;;;;9.53;4.90;;;;;;;7.69;73.68;99370.16;5074798;28;20244;-88
2023/03/17 04:24:34;;;;;;;10.50;4.87;;;;;;;7.82;73.47;99365.31;5073846;28;20185;-88
2023/03/17 04:27:00;;;;;;;11.23;5.63;;;;;;;7.92;72.69;99375.34;5073686;28;20184;-89
2023/03/17 04:29:26;;;;;;;10.80;4.53;;;;;;;7.91;72.71;99378.03;5074618;28;20352;-89
2023/03/17 04:31:52;;;;;;;9.90;4.40;;;;;;;7.90;72.86;99373.72;5074820;28;20259;-89
2023/03/17 04:34:18;;;;;;;6.83;3.97;;;;;;;8.03;72.65;99374.94;5073519;28;20664;-88
2023/03/17 04:36:46;;;;;;;7.73;4.63;;;;;;;8.09;72.00;99379.09;5074542;28;20314;-89
2023/03/17 04:39:12;;;;;;;10.83;4.43;;;;;;;7.92;71.84;99390.16;5074813;28;20267;-88
2023/03/17 04:41:37;;;;;;;7.73;3.90;;;;;;;7.89;71.76;99391.13;5107240;28;20688;-88
2023/03/17 04:44:03;;;;;;;6.50;3.67;;;;;;;8.01;71.25;99390.69;5074456;28;20326;-88
2023/03/17 04:46:28;;;;;;;8.10;4.03;;;;;;;7.94;70.76;99391.81;5074263;28;20260;-89
2023/03/17 04:48:55;;;;;;;8.13;3.77;;;;;;;7.91;71.16;99394.53;5074335;28;20218;-89
2023/03/17 04:51:21;;;;;;;8.03;4.47;;;;;;;7.99;71.23;99397.69;5073335;28;20188;-89
2023/03/17 04:53:46;;;;;;;7.23;3.70;;;;;;;7.92;70.56;99398.00;5073230;28;20173;-90
2023/03/17 04:56:12;;;;;;;6.53;3.47;;;;;;;7.94;70.88;99406.59;5074237;28;20197;-88
2023/03/17 04:58:37;;;;;;;6.43;3.60;;;;;;;7.97;71.01;99403.88;5074136;28;20178;-89
2023/03/17 05:01:03;;;;;;;6.80;3.67;;;;;;;8.04;70.56;99408.00;5074255;28;20228;-89
2023/03/17 05:03:29;;;;;;;8.97;3.70;;;;;;;8.14;70.46;99411.94;5073039;28;20649;-88
2023/03/17 05:05:56;;;;;;;6.40;2.83;;;;;;;8.13;69.68;99417.22;5074251;28;20177;-89
2023/03/17 05:08:22;;;;;;;8.70;3.63;;;;;;;7.96;70.45;99415.25;5073045;28;20215;-89
2023/03/17 05:10:48;;;;;;;6.57;2.97;;;;;;;8.00;69.59;99416.81;5073909;28;20210;-89
2023/03/17 05:13:14;;;;;;;4.40;2.57;;;;;;;7.91;69.71;99422.41;5072868;28;20629;-89
2023/03/17 05:15:46;;;;;;;8.37;3.17;;;;;;;7.99;69.71;99426.41;5072884;28;20209;-88
2023/03/17 05:18:12;;;;;;;5.97;3.30;;;;;;;7.96;69.44;99436.13;5073862;28;20219;-89
2023/03/17 05:20:37;;;;;;;7.93;3.43;;;;;;;7.96;69.79;99447.44;5073646;28;20616;-90
2023/03/17 05:23:03;;;;;;;8.10;3.33;;;;;;;7.95;70.13;99448.31;5073904;28;20236;-89
2023/03/17 05:25:28;;;;;;;6.93;3.13;;;;;;;7.97;70.54;99446.50;5073621;28;20541;-89
2023/03/17 05:27:54;;;;;;;9.10;4.23;;;;;;;7.93;70.57;99442.31;5073873;28;20173;-89
2023/03/17 05:30:19;;;;;;;17.43;7.67;;;;;;;8.07;70.73;99442.63;5073457;28;20169;-89
2023/03/17 05:32:45;;;;;;;41.67;15.17;;;;;;;8.20;70.56;99450.03;5073483;28;20187;-90
2023/03/17 05:35:12;;;;;;;14.17;5.90;;;;;;;8.06;70.08;99447.94;5074023;28;20181;-89
2023/03/17 05:37:37;;;;;;;9.43;3.47;;;;;;;8.12;70.40;99446.84;5073478;28;20181;-89
2023/03/17 05:40:03;;;;;;;6.80;3.33;;;;;;;8.13;70.95;99457.22;5073096;28;20622;-89
2023/03/17 05:42:28;;;;;;;5.63;3.27;;;;;;;8.22;70.45;99454.28;5073784;28;20625;-88
2023/03/17 05:44:54;;;;;;;8.27;3.97;;;;;;;8.14;70.55;99452.84;5073384;28;20182;-89
2023/03/17 05:47:19;;;;;;;6.43;3.33;;;;;;;8.04;71.02;99461.03;5073724;28;20226;-90
2023/03/17 05:49:45;;;;;;;6.83;3.43;;;;;;;8.20;70.83;99460.47;5072376;28;20272;-89
2023/03/17 05:52:11;;;;;;;5.43;2.90;;;;;;;8.37;70.64;99469.41;5072266;28;20264;-90
2023/03/17 05:54:36;;;;;;;7.93;3.73;;;;;;;8.44;69.79;99473.47;5073323;28;20260;-89
2023/03/17 05:57:02;;;;;;;5.43;3.07;;;;;;;8.48;69.91;99487.25;5073508;28;20569;-89
2023/03/17 05:59:28;;;;;;;6.43;2.83;;;;;;;8.58;70.38;99478.16;5073162;28;20220;-89
2023/03/17 06:01:54;;;;;;;8.60;3.93;;;;;;;8.86;70.25;99484.00;5073096;28;20244;-90
2023/03/17 06:04:19;;;;;;;6.17;3.50;;;;;;;9.15;70.25;99488.03;5073610;28;20208;-90
2023/03/17 06:06:45;;;;;;;7.50;3.63;;;;;;;9.79;68.67;99475.69;5072128;28;20187;-89
2023/03/17 06:09:10;;;;;;;6.07;3.20;;;;;;;11.78;67.77;99474.84;5073038;28;20174;-90
2023/03/17 06:11:37;;;;;;;7.77;3.60;;;;;;;13.61;56.44;99459.25;5072053;28;20296;-90
2023/03/17 06:14:02;;;;;;;5.27;2.80;;;;;;;15.29;47.91;99452.88;5073643;28;20184;-91
2023/03/17 06:16:31;;;;;;;5.60;2.80;;;;;;;15.85;44.39;99445.56;5073418;28;20169;-90
2023/03/17 06:18:57;;;;;;;5.07;2.23;;;;;;;16.49;43.42;99448.00;5073294;28;20281;-90
2023/03/17 06:21:23;;;;;;;4.67;2.03;;;;;;;16.44;40.77;99444.84;5073286;28;20199;-91
2023/03/17 06:23:48;;;;;;;5.27;2.27;;;;;;;16.78;42.23;99450.38;5073202;28;20180;-91
2023/03/17 06:26:13;;;;;;;5.17;2.53;;;;;;;17.27;39.32;99447.63;5072081;28;20648;-90
2023/03/17 06:28:39;;;;;;;4.13;2.17;;;;;;;17.56;39.24;99452.44;5073250;28;20179;-91
2023/03/17 06:31:04;;;;;;;3.03;1.63;;;;;;;17.43;38.06;99446.34;5073035;28;20255;-91
2023/03/17 06:33:30;;;;;;;3.00;1.50;;;;;;;17.82;37.54;99447.78;5071818;28;20188;-88
2023/03/17 06:35:57;;;;;;;3.73;1.90;;;;;;;18.59;37.41;99460.25;5072941;28;20171;-88
2023/03/17 06:38:23;;;;;;;2.33;1.37;;;;;;;18.80;35.99;99460.31;5072840;28;20178;-90
2023/03/17 06:40:49;;;;;;;4.77;1.70;;;;;;;18.29;36.51;99462.66;5071842;28;20204;-91
2023/03/17 06:43:16;;;;;;;5.13;2.00;;;;;;;18.19;36.68;99469.63;5071920;28;20550;-91
2023/03/17 06:45:41;;;;;;;4.23;1.73;;;;;;;17.94;36.92;99473.38;5073052;28;20251;-91
2023/03/17 06:48:07;;;;;;;4.13;1.83;;;;;;;17.41;38.10;99480.06;5072872;28;20210;-91
2023/03/17 06:50:32;;;;;;;4.07;1.67;;;;;;;16.81;38.93;99481.94;5072212;28;20181;-91
2023/03/17 06:52:58;;;;;;;3.90;1.57;;;;;;;16.49;39.01;99478.91;5073337;28;20208;-91
2023/03/17 06:55:23;;;;;;;4.33;1.77;;;;;;;15.64;41.26;99484.91;5076299;28;20169;-93
2023/03/17 06:57:49;;;;;;;3.37;2.03;;;;;;;15.56;42.29;99495.13;5075815;28;20186;-91
2023/03/17 07:00:15;;;;;;;3.37;1.50;;;;;;;15.08;40.00;99501.81;5076066;28;20676;-92
2023/03/17 07:02:41;;;;;;;4.63;1.40;;;;;;;14.43;42.20;99507.81;5075977;28;20188;-91
2023/03/17 07:05:07;;;;;;;3.87;2.07;;;;;;;13.85;43.28;99502.56;5075695;28;20182;-93
2023/03/17 07:07:34;;;;;;;3.43;1.40;;;;;;;13.54;44.20;99514.94;5075806;28;20194;-91
2023/03/17 07:10:00;;;;;;;4.87;1.50;;;;;;;13.74;44.22;99510.28;5075605;28;20270;-93
2023/03/17 07:12:26;;;;;;;4.17;1.67;;;;;;;13.61;44.10;99512.78;5075669;28;20182;-91
2023/03/17 07:14:53;;;;;;;2.57;1.60;;;;;;;13.74;45.21;99512.91;5075612;28;20644;-91
2023/03/17 07:17:18;;;;;;;3.07;1.40;;;;;;;13.31;43.71;99511.94;5075495;28;20190;-93
2023/03/17 07:19:44;;;;;;;2.70;1.47;;;;;;;13.16;47.27;99515.44;5076617;28;20162;-91
2023/03/17 07:22:12;;;;;;;3.83;1.37;;;;;;;12.94;45.99;99516.63;5076264;28;20201;-90
2023/03/17 07:24:40;;;;;;;2.17;1.30;;;;;;;13.07;46.10;99514.19;5075469;28;20207;-91
2023/03/17 07:27:07;;;;;;;2.47;1.20;;;;;;;12.91;45.42;99508.94;5075527;28;20269;-91
2023/03/17 07:29:33;;;;;;;7.00;2.07;;;;;;;12.84;47.03;99509.34;5076494;28;20181;-92
2023/03/17 07:31:59;;;;;;;3.30;1.30;;;;;;;12.61;45.12;99501.88;5075363;28;20173;-92
2023/03/17 07:34:27;;;;;;;4.53;1.50;;;;;;;12.78;47.96;99512.31;5076195;28;20177;-91
2023/03/17 07:36:53;;;;;;;3.40;1.90;;;;;;;12.53;45.69;99510.19;5076249;28;20184;-91
2023/03/17 07:39:18;;;;;;;1.97;1.03;;;;;;;12.57;46.90;99502.97;5076942;28;20169;-92
2023/03/17 07:41:47;;;;;;;3.17;1.50;;;;;;;11.84;46.14;99512.16;5075262;28;20562;-91
2023/03/17 07:44:15;;;;;;;3.73;1.40;;;;;;;11.83;46.44;99507.81;5076163;28;20173;-90
2023/03/17 07:46:40;;;;;;;3.80;1.37;;;;;;;12.04;47.18;99521.63;5076272;28;20176;-92
2023/03/17 07:49:06;;;;;;;1.40;0.80;;;;;;;12.12;48.29;99520.28;5076348;28;20177;-90
2023/03/17 07:51:32;;;;;;;3.13;1.20;;;;;;;12.38;49.26;99515.41;5074921;28;20185;-91
2023/03/17 07:54:02;;;;;;;2.37;1.13;;;;;;;12.45;47.85;99507.09;5074867;28;20266;-91
2023/03/17 07:56:31;;;;;;;3.23;1.20;;;;;;;12.54;45.03;99511.88;5075830;28;20180;-91
2023/03/17 07:58:57;;;;;;;1.77;0.90;;;;;;;12.11;44.10;99517.72;5075963;28;20261;-90
2023/03/17 08:01:27;;;;;;;2.93;1.37;;;;;;;12.27;44.44;99513.34;5075035;28;20266;-92
2023/03/17 08:03:53;;;;;;;3.07;1.17;;;;;;;12.00;43.81;99515.66;5074156;28;20173;-90
2023/03/17 08:06:20;;;;;;;2.10;0.90;;;;;;;11.99;44.56;99518.38;5074442;28;20181;-91
2023/03/17 08:08:46;;;;;;;2.63;1.27;;;;;;;11.29;43.32;99527.19;5074435;28;20187;-90
2023/03/17 08:11:12;;;;;;;3.17;1.30;;;;;;;11.65;44.47;99514.84;5075293;28;20189;-90
2023/03/17 08:13:38;;;;;;;2.43;0.97;;;;;;;11.75;43.94;99525.75;5075172;28;20260;-91
2023/03/17 08:16:04;;;;;;;2.37;0.80;;;;;;;11.96;44.50;99522.00;5075217;28;20181;-90
2023/03/17 08:18:29;;;;;;;2.30;1.03;;;;;;;11.83;44.00;99523.56;5075725;28;20615;-90
2023/03/17 08:20:55;;;;;;;2.93;1.07;;;;;;;11.89;43.29;99518.03;5075589;28;20261;-90
2023/03/17 08:23:21;;;;;;;3.60;1.30;;;;;;;12.14;44.62;99522.81;5075319;28;20177;-89
2023/03/17 08:25:47;;;;;;;3.60;0.80;;;;;;;11.98;43.82;99530.66;5075182;28;20175;-90
2023/03/17 08:28:14;;;;;;;1.80;1.00;;;;;;;11.79;44.52;99523.81;5074834;28;20185;-90
2023/03/17 08:30:41;;;;;;;2.10;0.67;;;;;;;11.76;43.66;99524.84;5075104;28;20173;-89
2023/03/17 08:33:07;;;;;;;2.77;0.90;;;;;;;12.10;43.49;99516.91;5075186;28;20177;-89
2023/03/17 08:35:34;;;;;;;1.40;0.80;;;;;;;12.08;42.26;99523.16;5073886;28;20266;-89
2023/03/17 08:38:00;;;;;;;1.27;0.70;;;;;;;12.00;41.57;99533.22;5073940;28;20180;-89
2023/03/17 08:40:25;;;;;;;2.03;0.80;;;;;;;12.11;42.06;99520.34;5074633;28;20525;-89
2023/03/17 08:42:57;;;;;;;3.90;1.03;;;;;;;12.31;43.21;99515.75;5075193;28;20260;-88
2023/03/17 08:45:22;;;;;;;1.57;0.67;;;;;;;12.28;41.54;99517.69;5075057;28;20165;-89
2023/03/17 08:47:48;;;;;;;2.10;0.80;;;;;;;12.44;40.78;99515.94;5075067;28;20177;-90
2023/03/17 08:50:20;;;;;;;3.00;1.00;;;;;;;12.33;41.00;99519.16;5073591;28;20177;-90
2023/03/17 08:52:47;;;;;;;2.23;0.93;;;;;;;12.41;41.42;99516.09;5074629;28;20186;-89
2023/03/17 08:55:14;;;;;;;3.47;1.47;;;;;;;12.75;42.92;99509.84;5073479;28;20561;-89
2023/03/17 08:57:39;;;;;;;3.23;0.83;;;;;;;12.75;40.48;99505.44;5073423;28;20177;-90
2023/03/17 09:00:09;;;;;;;3.03;1.00;;;;;;;12.79;42.59;99503.47;5074189;28;20249;-89
2023/03/17 09:02:36;;;;;;;1.53;0.80;;;;;;;13.23;41.75;99498.38;5074137;28;20287;-89
2023/03/17 09:05:04;;;;;;;4.00;0.93;;;;;;;13.25;39.64;99497.34;5074117;28;20186;-91
2023/03/17 09:07:29;;;;;;;2.47;1.23;;;;;;;13.52;40.80;99484.38;5073147;28;20207;-89
2023/03/17 09:09:55;;;;;;;1.83;0.97;;;;;;;13.70;39.42;99490.34;5073224;28;20235;-90
2023/03/17 09:12:21;;;;;;;3.33;1.27;;;;;;;13.23;40.13;99501.00;5073038;28;20266;-90
2023/03/17 09:14:47;;;;;;;1.83;0.90;;;;;;;13.21;39.81;99497.59;5073701;28;20630;-90
2023/03/17 09:17:14;;;;;;;2.50;1.20;;;;;;;12.90;40.60;99506.34;5073506;28;20621;-90
2023/03/17 09:19:40;;;;;;;2.20;1.00;;;;;;;13.18;39.71;99503.88;5072865;28;20182;-89
2023/03/17 09:22:06;;;;;;;1.30;0.80;;;;;;;13.38;39.45;99495.72;5072759;28;20226;-89
2023/03/17 09:24:32;;;;;;;2.27;1.17;;;;;;;13.57;40.86;99495.47;5074022;28;20172;-89
2023/03/17 09:26:58;;;;;;;2.37;0.87;;;;;;;13.59;40.89;99493.59;5073925;28;20649;-90
2023/03/17 09:29:25;;;;;;;2.87;1.03;;;;;;;13.64;40.52;99488.91;5073585;28;20508;-90
2023/03/17 09:31:51;;;;;;;1.77;0.80;;;;;;;13.81;39.68;99491.38;5072951;28;20658;-89
2023/03/17 09:34:17;;;;;;;2.03;0.70;;;;;;;13.80;39.36;99502.88;5072669;28;20224;-89
2023/03/17 09:36:42;;;;;;;1.70;0.60;;;;;;;13.70;40.08;99495.59;5072649;28;20207;-89
2023/03/17 09:39:08;;;;;;;2.13;1.13;;;;;;;13.73;39.53;99495.41;5073485;28;20526;-90
2023/03/17 09:42:01;;;;;;;1.30;0.70;;;;;;;13.67;39.76;99496.63;5073632;28;20204;-90
2023/03/17 09:44:29;;;;;;;1.27;0.57;;;;;;;13.46;39.99;99493.47;5073540;28;20183;-89
2023/03/17 09:47:01;;;;;;;3.03;0.73;;;;;;;13.46;39.88;99500.53;5073368;28;20171;-90
2023/03/17 09:49:51;;;;;;;2.17;0.80;;;;;;;13.56;40.09;99493.78;5073406;28;20200;-90
2023/03/17 09:52:23;;;;;;;3.33;0.70;;;;;;;13.38;39.88;99495.72;5072351;28;20185;-89
2023/03/17 09:54:49;;;;;;;2.33;1.13;;;;;;;13.20;41.47;99495.91;5072395;28;20172;-88
2023/03/17 09:57:16;;;;;;;2.20;0.80;;;;;;;13.40;40.33;99493.81;5073477;28;20186;-89
2023/03/17 09:59:46;;;;;;;2.50;0.80;;;;;;;13.58;40.04;99491.88;5072248;28;20222;-89
2023/03/17 10:02:17;;;;;;;1.63;0.87;;;;;;;13.78;39.98;99493.34;5073143;28;20294;-89
2023/03/17 10:04:44;;;;;;;2.30;1.00;;;;;;;14.06;40.12;99488.09;5073656;28;20589;-90
2023/03/17 10:07:15;;;;;;;4.03;1.00;;;;;;;14.07;38.72;99490.63;5073178;28;20176;-88
2023/03/17 10:10:13;;;;;;;2.00;0.87;;;;;;;14.18;38.72;99488.19;5073310;28;20223;-89
2023/03/17 10:12:55;;;;;;;2.10;0.80;;;;;;;14.30;40.01;99486.59;5072089;28;20245;-91
2023/03/17 10:15:31;;;;;;;3.60;0.50;;;;;;;14.39;37.56;99485.19;5073381;28;20542;-89
2023/03/17 10:17:57;;;;;;;3.37;1.33;;;;;;;14.49;37.52;99473.97;5072197;28;20266;-91
2023/03/17 10:20:27;;;;;;;2.07;0.90;;;;;;;14.69;38.49;99476.22;5073017;28;20291;-90
2023/03/17 10:23:02;;;;;;;1.77;0.70;;;;;;;14.61;36.65;99475.84;5073592;28;20177;-89
2023/03/17 10:25:33;;;;;;;3.37;0.53;;;;;;;14.78;35.60;99472.13;5073750;28;20177;-90
2023/03/17 10:28:14;;;;;;;2.10;0.70;;;;;;;14.93;36.32;99476.44;5076201;28;20161;-90
2023/03/17 10:30:40;;;;;;;1.00;0.40;;;;;;;14.80;35.16;99469.41;5078101;28;20190;-90
2023/03/17 10:33:05;;;;;;;1.83;0.70;;;;;;;14.81;36.65;99469.28;5077017;28;20185;-90
2023/03/17 10:35:34;;;;;;;1.20;0.70;;;;;;;14.99;36.18;99472.53;5076391;28;20180;-90
2023/03/17 10:38:12;;;;;;;1.90;0.70;;;;;;;15.06;36.00;99479.97;5076998;28;20184;-89
2023/03/17 10:40:38;;;;;;;2.63;0.77;;;;;;;14.53;38.05;99472.00;5075964;28;20262;-90
2023/03/17 10:43:07;;;;;;;3.37;1.20;;;;;;;14.44;37.32;99477.88;5075978;28;20192;-90
2023/03/17 10:45:37;;;;;;;1.40;0.70;;;;;;;13.98;37.55;99469.28;5076906;28;20671;-90
2023/03/17 10:48:07;;;;;;;1.57;0.87;;;;;;;13.75;37.59;99462.78;5075982;28;20567;-90
2023/03/17 10:50:35;;;;;;;1.70;0.87;;;;;;;13.84;38.86;99456.94;5069896;28;20177;-90
2023/03/17 10:53:26;;;;;;;0.97;0.50;;;;;;;13.64;37.35;99459.06;5059574;28;20218;-89
2023/03/17 10:55:56;;;;;;;1.53;0.80;;;;;;;13.87;38.51;99464.66;5073156;28;20307;-89
2023/03/17 10:58:47;;;;;;;0.87;0.50;;;;;;;13.88;37.58;99468.16;5069398;28;20630;-90
2023/03/17 11:01:21;;;;;;;1.97;0.90;;;;;;;14.10;37.23;99461.44;5056720;28;20200;-90
2023/03/17 11:03:48;;;;;;;1.13;0.67;;;;;;;14.09;38.27;99456.28;5056499;28;20263;-89
2023/03/17 11:06:17;;;;;;;1.63;0.70;;;;;;;14.01;38.54;99454.13;5056919;28;20184;-88
2023/03/17 11:08:55;;;;;;;1.77;0.93;;;;;;;13.93;37.81;99437.94;5062157;28;20185;-90
2023/03/17 11:11:29;;;;;;;5.17;1.17;;;;;;;14.24;38.78;99446.56;5064322;28;20261;-90
2023/03/17 11:14:26;;;;;;;2.83;1.10;;;;;;;14.55;37.64;99436.66;5064587;28;20264;-89
2023/03/17 11:16:57;;;;;;;2.07;0.90;;;;;;;14.58;37.54;99444.38;5068194;28;20626;-89
2023/03/17 11:19:45;;;;;;;4.63;0.97;;;;;;;14.89;37.51;99437.97;5065666;28;20177;-90
2023/03/17 11:22:19;;;;;;;1.50;0.77;;;;;;;14.67;36.24;99440.31;5066619;28;20204;-91
2023/03/17 11:24:58;;;;;;;0.97;0.63;;;;;;;14.96;36.10;99439.28;5065300;28;20184;-90
2023/03/17 11:27:45;;;;;;;1.27;0.60;;;;;;;15.02;35.06;99438.84;5061629;28;20618;-90
2023/03/17 11:30:28;;;;;;;3.87;0.90;;;;;;;15.03;35.21;99432.63;5065466;28;20603;-90
2023/03/17 11:33:35;;;;;;;1.53;0.80;;;;;;;14.89;35.44;99443.25;5066537;28;20314;-89
2023/03/17 11:36:05;;;;;;;3.67;1.10;;;;;;;14.92;35.60;99431.63;5054931;28;20243;-90
2023/03/17 11:38:38;;;;;;;11.37;1.03;;;;;;;14.43;36.40;99439.25;5055240;28;20173;-89
2023/03/17 11:41:17;;;;;;;1.87;0.67;;;;;;;14.41;36.47;99425.31;5054782;28;20546;-91